createdAt,value
2019-05-19T00:01:36.792Z,98327.14
2019-05-19T00:04:06.910Z,98331.37
2019-05-19T00:06:36.863Z,98337.13
2019-05-19T00:09:07.335Z,98330.52
2019-05-19T00:11:37.250Z,98331.65
2019-05-19T00:14:07.079Z,98337.64
2019-05-19T00:16:36.994Z,98330.79
2019-05-19T00:19:06.968Z,98331.65
2019-05-19T00:21:36.859Z,98330.41
2019-05-19T00:24:06.664Z,98326.86
2019-05-19T00:26:36.342Z,98332.72
2019-05-19T00:29:06.138Z,98327.34
2019-05-19T00:31:35.808Z,98320.77
2019-05-19T00:34:05.817Z,98328.69
2019-05-19T00:36:35.461Z,98323.80
2019-05-19T00:39:06.722Z,98323.11
2019-05-19T00:41:36.356Z,98319.70
2019-05-19T00:44:06.149Z,98328.38
2019-05-19T00:46:36.081Z,98335.23
2019-05-19T00:49:05.860Z,98330.59
2019-05-19T00:51:36.149Z,98329.86
2019-05-19T00:54:06.204Z,98322.56
2019-05-19T00:56:36.633Z,98323.80
2019-05-19T00:59:08.110Z,98323.08
2019-05-19T01:01:37.859Z,98328.58
2019-05-19T01:04:07.793Z,98330.06
2019-05-19T01:06:37.617Z,98325.31
2019-05-19T01:09:08.457Z,98328.96
2019-05-19T01:11:38.205Z,98328.34
2019-05-19T01:14:08.126Z,98322.56
2019-05-19T01:16:37.887Z,98324.63
2019-05-19T01:19:07.723Z,98324.97
2019-05-19T01:21:39.298Z,98322.29
2019-05-19T01:24:09.340Z,98322.50
2019-05-19T01:26:39.112Z,98325.32
2019-05-19T01:29:08.863Z,98324.25
2019-05-19T01:31:38.713Z,98316.72
2019-05-19T01:34:08.528Z,98316.27
2019-05-19T01:36:38.353Z,98323.44
2019-05-19T01:39:08.409Z,98325.02
2019-05-19T01:41:38.152Z,98323.22
2019-05-19T01:44:08.267Z,98316.25
2019-05-19T01:46:37.853Z,98317.97
2019-05-19T01:49:07.559Z,98320.65
2019-05-19T01:51:37.441Z,98320.67
2019-05-19T01:54:07.529Z,98316.41
2019-05-19T01:56:40.228Z,98315.06
2019-05-19T01:59:10.077Z,98318.36
2019-05-19T02:01:39.969Z,98314.37
2019-05-19T02:04:10.168Z,98318.87
2019-05-19T02:06:39.979Z,98315.46
2019-05-19T02:09:10.149Z,98319.14
2019-05-19T02:11:39.955Z,98316.45
2019-05-19T02:14:09.768Z,98316.34
2019-05-19T02:16:40.086Z,98318.44
2019-05-19T02:19:09.973Z,98310.13
2019-05-19T02:21:39.769Z,98309.29
2019-05-19T02:24:09.521Z,98310.17
2019-05-19T02:26:39.291Z,98313.94
2019-05-19T02:29:09.107Z,98306.52
2019-05-19T02:31:38.724Z,98311.39
2019-05-19T02:34:08.534Z,98308.23
2019-05-19T02:36:38.312Z,98312.14
2019-05-19T02:39:08.362Z,98302.64
2019-05-19T02:41:40.286Z,98306.91
2019-05-19T02:44:10.193Z,98307.73
2019-05-19T02:46:40.986Z,98305.57
2019-05-19T02:49:12.258Z,98300.08
2019-05-19T02:51:43.462Z,98304.95
2019-05-19T02:54:14.427Z,98298.36
2019-05-19T02:56:47.185Z,98295.33
2019-05-19T02:59:18.718Z,98287.91
2019-05-19T03:02:08.170Z,98289.72
2019-05-19T03:04:38.173Z,98291.06
2019-05-19T03:07:08.208Z,98292.80
2019-05-19T03:09:38.202Z,98297.91
2019-05-19T03:12:08.201Z,98290.95
2019-05-19T03:14:38.150Z,98292.90
2019-05-19T03:17:08.140Z,98291.80
2019-05-19T03:19:38.261Z,98290.47
2019-05-19T03:22:08.242Z,98293.87
2019-05-19T03:24:38.001Z,98297.28
2019-05-19T03:27:07.854Z,98298.23
2019-05-19T03:29:39.416Z,98294.34
2019-05-19T03:32:19.799Z,98294.45
2019-05-19T03:34:50.917Z,98290.81
2019-05-19T03:37:20.997Z,98292.77
2019-05-19T03:39:51.252Z,98280.94
2019-05-19T03:42:21.562Z,98285.22
2019-05-19T03:44:52.253Z,98284.14
2019-05-19T03:47:22.971Z,98285.72
2019-05-19T03:49:53.696Z,98284.86
2019-05-19T03:52:24.160Z,98275.12
2019-05-19T03:54:54.602Z,98284.64
2019-05-19T03:57:25.306Z,98278.69
2019-05-19T03:59:55.724Z,98283.53
2019-05-19T04:02:26.572Z,98281.47
2019-05-19T04:04:57.165Z,98278.55
2019-05-19T04:07:27.828Z,98279.15
2019-05-19T04:09:58.238Z,98278.30
2019-05-19T04:12:28.777Z,98278.91
2019-05-19T04:14:59.466Z,98287.20
2019-05-19T04:17:29.940Z,98288.16
2019-05-19T04:20:00.885Z,98286.95
2019-05-19T04:22:31.611Z,98286.48
2019-05-19T04:25:02.216Z,98283.05
2019-05-19T04:27:32.548Z,98288.05
2019-05-19T04:30:03.507Z,98291.80
2019-05-19T04:32:34.119Z,98288.40
2019-05-19T04:35:05.543Z,98287.19
2019-05-19T04:37:36.182Z,98287.80
2019-05-19T04:40:08.202Z,98288.78
2019-05-19T04:42:38.741Z,98288.16
2019-05-19T04:45:09.216Z,98287.52
2019-05-19T04:47:39.645Z,98290.31
2019-05-19T04:50:10.324Z,98287.16
2019-05-19T04:52:40.821Z,98291.42
2019-05-19T04:55:11.745Z,98288.02
2019-05-19T04:57:42.155Z,98294.97
2019-05-19T05:00:12.403Z,98284.94
2019-05-19T05:02:42.774Z,98292.88
2019-05-19T05:05:14.014Z,98289.20
2019-05-19T05:07:44.585Z,98291.03
2019-05-19T05:10:15.453Z,98283.50
2019-05-19T05:12:46.008Z,98286.91
2019-05-19T05:15:17.165Z,98293.34
2019-05-19T05:17:47.907Z,98292.11
2019-05-19T05:20:18.817Z,98294.91
2019-05-19T05:22:49.201Z,98292.84
2019-05-19T05:25:20.627Z,98295.27
2019-05-19T05:27:51.715Z,98300.87
2019-05-19T05:30:22.236Z,98301.73
2019-05-19T05:32:52.690Z,98296.84
2019-05-19T05:35:23.133Z,98294.78
2019-05-19T05:37:53.684Z,98295.98
2019-05-19T05:40:24.131Z,98293.31
2019-05-19T05:42:55.292Z,98297.23
2019-05-19T05:45:25.714Z,98296.84
2019-05-19T05:47:56.466Z,98297.70
2019-05-19T05:50:26.791Z,98293.90
2019-05-19T05:52:57.462Z,98298.65
2019-05-19T05:55:27.851Z,98299.38
2019-05-19T05:57:58.165Z,98301.23
2019-05-19T06:00:28.621Z,98306.08
2019-05-19T06:02:58.747Z,98306.80
2019-05-19T06:05:29.369Z,98305.33
2019-05-19T06:08:00.106Z,98305.22
2019-05-19T06:10:30.497Z,98308.98
2019-05-19T06:13:00.933Z,98313.25
2019-05-19T06:15:31.511Z,98312.12
2019-05-19T06:18:01.867Z,98312.22
2019-05-19T06:20:32.593Z,98313.67
2019-05-19T06:23:03.128Z,98314.88
2019-05-19T06:25:33.762Z,98315.39
2019-05-19T06:28:04.475Z,98312.92
2019-05-19T06:30:35.062Z,98313.89
2019-05-19T06:33:05.699Z,98316.54
2019-05-19T06:35:36.687Z,98315.92
2019-05-19T06:38:07.597Z,98322.49
2019-05-19T06:40:38.086Z,98319.19
2019-05-19T06:43:08.679Z,98324.08
2019-05-19T06:45:39.138Z,98319.91
2019-05-19T06:48:09.579Z,98326.38
2019-05-19T06:50:40.984Z,98327.62
2019-05-19T06:53:14.487Z,98323.19
2019-05-19T06:55:43.689Z,98329.89
2019-05-19T06:58:14.114Z,98327.97
2019-05-19T07:00:45.206Z,98327.21
2019-05-19T07:03:15.543Z,98326.59
2019-05-19T07:05:46.225Z,98327.59
2019-05-19T07:08:16.827Z,98324.49
2019-05-19T07:10:47.772Z,98315.92
2019-05-19T07:13:18.159Z,98321.67
2019-05-19T07:15:48.615Z,98321.77
2019-05-19T07:18:19.262Z,98321.63
2019-05-19T07:20:50.289Z,98319.25
2019-05-19T07:23:28.314Z,98323.14
2019-05-19T07:25:52.735Z,98321.28
2019-05-19T07:28:23.691Z,98320.56
2019-05-19T07:30:54.045Z,98327.27
2019-05-19T07:33:24.321Z,98318.73
2019-05-19T07:35:55.066Z,98321.17
2019-05-19T07:38:25.354Z,98328.85
2019-05-19T07:40:55.869Z,98329.23
2019-05-19T07:43:26.381Z,98331.64
2019-05-19T07:45:56.932Z,98329.95
2019-05-19T07:48:27.384Z,98330.99
2019-05-19T07:50:58.088Z,98332.99
2019-05-19T07:53:42.212Z,98333.61
2019-05-19T07:56:00.908Z,98333.02
2019-05-19T07:58:31.450Z,98332.78
2019-05-19T08:01:02.362Z,98336.91
2019-05-19T08:03:32.901Z,98331.41
2019-05-19T08:06:03.743Z,98333.02
2019-05-19T08:08:34.264Z,98324.73
2019-05-19T08:11:04.903Z,98327.08
2019-05-19T08:13:35.889Z,98328.62
2019-05-19T08:16:06.604Z,98327.76
2019-05-19T08:18:37.376Z,98323.19
2019-05-19T08:21:08.169Z,98330.09
2019-05-19T08:23:38.513Z,98335.66
2019-05-19T08:26:08.987Z,98332.41
2019-05-19T08:28:39.545Z,98331.61
2019-05-19T08:31:09.936Z,98338.41
2019-05-19T08:33:40.313Z,98337.44
2019-05-19T08:36:10.870Z,98340.13
2019-05-19T08:38:41.044Z,98342.92
2019-05-19T08:41:11.715Z,98338.70
2019-05-19T08:43:42.262Z,98344.13
2019-05-19T08:46:12.552Z,98334.95
2019-05-19T08:48:42.839Z,98344.50
2019-05-19T08:51:13.649Z,98341.91
2019-05-19T08:53:44.072Z,98347.47
2019-05-19T08:56:14.531Z,98341.95
2019-05-19T08:58:45.131Z,98346.84
2019-05-19T09:01:15.448Z,98344.02
2019-05-19T09:03:46.485Z,98346.52
2019-05-19T09:06:17.213Z,98343.11
2019-05-19T09:08:47.803Z,98347.56
2019-05-19T09:11:18.150Z,98349.30
2019-05-19T09:13:48.675Z,98349.97
2019-05-19T09:16:19.149Z,98342.80
2019-05-19T09:18:50.071Z,98339.29
2019-05-19T09:21:20.616Z,98337.83
2019-05-19T09:23:51.058Z,98335.34
2019-05-19T09:26:21.627Z,98334.80
2019-05-19T09:28:52.121Z,98331.45
2019-05-19T09:31:22.786Z,98336.17
2019-05-19T09:33:53.321Z,98336.40
2019-05-19T09:36:23.998Z,98328.77
2019-05-19T09:38:55.037Z,98336.55
2019-05-19T09:41:25.720Z,98339.00
2019-05-19T09:43:56.061Z,98333.77
2019-05-19T09:46:26.202Z,98333.86
2019-05-19T09:49:13.866Z,98339.46
2019-05-19T09:51:44.436Z,98339.89
2019-05-19T09:54:14.714Z,98333.28
2019-05-19T09:56:45.061Z,98332.27
2019-05-19T09:59:15.787Z,98330.47
2019-05-19T10:01:46.552Z,98326.23
2019-05-19T10:04:17.219Z,98334.02
2019-05-19T10:06:47.880Z,98324.59
2019-05-19T10:09:27.675Z,98319.86
2019-05-19T10:12:11.814Z,98317.52
2019-05-19T10:14:42.237Z,98317.23
2019-05-19T10:17:12.912Z,98310.34
2019-05-19T10:19:43.522Z,98314.20
2019-05-19T10:22:14.426Z,98317.97
2019-05-19T10:24:57.847Z,98316.39
2019-05-19T10:27:17.196Z,98310.99
2019-05-19T10:29:47.526Z,98314.20
2019-05-19T10:32:18.244Z,98314.98
2019-05-19T10:34:48.909Z,98313.86
2019-05-19T10:37:19.527Z,98311.56
2019-05-19T10:39:49.889Z,98305.80
2019-05-19T10:42:20.386Z,98307.76
2019-05-19T10:44:51.238Z,98304.16
2019-05-19T10:47:21.813Z,98301.13
2019-05-19T10:49:52.326Z,98305.03
2019-05-19T10:52:22.618Z,98301.63
2019-05-19T10:54:53.043Z,98298.44
2019-05-19T10:57:23.291Z,98306.29
2019-05-19T10:59:53.838Z,98305.30
2019-05-19T11:02:24.246Z,98307.08
2019-05-19T11:04:54.579Z,98305.58
2019-05-19T11:07:25.300Z,98306.20
2019-05-19T11:09:55.921Z,98302.52
2019-05-19T11:12:26.102Z,98298.98
2019-05-19T11:14:56.534Z,98300.06
2019-05-19T11:17:26.925Z,98302.22
2019-05-19T11:19:57.310Z,98298.85
2019-05-19T11:22:27.376Z,98303.05
2019-05-19T11:24:58.095Z,98294.61
2019-05-19T11:27:28.615Z,98289.27
2019-05-19T11:29:58.801Z,98282.73
2019-05-19T11:32:29.021Z,98279.08
2019-05-19T11:34:59.265Z,98273.79
2019-05-19T11:37:29.396Z,98268.91
2019-05-19T11:39:59.560Z,98273.32
2019-05-19T11:42:29.895Z,98287.84
2019-05-19T11:45:00.034Z,98286.44
2019-05-19T11:47:30.398Z,98283.48
2019-05-19T11:50:00.850Z,98280.67
2019-05-19T11:52:31.132Z,98272.66
2019-05-19T11:55:01.707Z,98278.61
2019-05-19T11:57:32.065Z,98275.20
2019-05-19T12:00:02.277Z,98274.25
2019-05-19T12:02:32.714Z,98279.27
2019-05-19T12:05:02.887Z,98273.39
2019-05-19T12:07:33.235Z,98275.09
2019-05-19T12:10:03.704Z,98269.84
2019-05-19T12:12:33.959Z,98273.91
2019-05-19T12:15:04.912Z,98266.47
2019-05-19T12:17:35.263Z,98270.77
2019-05-19T12:20:06.166Z,98266.23
2019-05-19T12:22:36.397Z,98272.27
2019-05-19T12:25:07.283Z,98270.08
2019-05-19T12:27:37.679Z,98271.32
2019-05-19T12:30:09.573Z,98270.28
2019-05-19T12:32:39.703Z,98278.08
2019-05-19T12:35:10.099Z,98270.45
2019-05-19T12:37:40.363Z,98265.73
2019-05-19T12:40:11.788Z,98265.22
2019-05-19T12:42:42.076Z,98265.50
2019-05-19T12:45:13.204Z,98260.56
2019-05-19T12:47:44.099Z,98265.97
2019-05-19T12:50:15.059Z,98250.97
2019-05-19T12:52:45.382Z,98254.20
2019-05-19T12:55:15.806Z,98245.82
2019-05-19T12:57:46.314Z,98244.16
2019-05-19T13:00:17.096Z,98250.27
2019-05-19T13:02:47.404Z,98238.20
2019-05-19T13:05:17.695Z,98237.59
2019-05-19T13:07:47.807Z,98236.80
2019-05-19T13:10:18.322Z,98231.97
2019-05-19T13:12:48.813Z,98233.33
2019-05-19T13:15:19.126Z,98237.69
2019-05-19T13:17:49.234Z,98237.20
2019-05-19T13:20:19.565Z,98229.98
2019-05-19T13:22:49.659Z,98227.42
2019-05-19T13:25:19.868Z,98230.29
2019-05-19T13:27:50.101Z,98224.16
2019-05-19T13:30:20.209Z,98219.16
2019-05-19T13:32:50.523Z,98217.49
2019-05-19T13:35:20.961Z,98215.94
2019-05-19T13:37:51.425Z,98222.32
2019-05-19T13:40:21.823Z,98215.91
2019-05-19T13:42:51.905Z,98220.26
2019-05-19T13:45:22.247Z,98222.38
2019-05-19T13:47:52.544Z,98219.20
2019-05-19T13:50:22.902Z,98217.84
2019-05-19T13:52:53.084Z,98220.34
2019-05-19T13:55:23.540Z,98213.94
2019-05-19T13:57:53.691Z,98205.42
2019-05-19T14:00:23.957Z,98203.00
2019-05-19T14:02:54.173Z,98196.28
2019-05-19T14:05:24.522Z,98200.16
2019-05-19T14:07:54.761Z,98204.34
2019-05-19T14:10:25.063Z,98198.33
2019-05-19T14:13:00.034Z,98192.05
2019-05-19T14:15:30.090Z,98181.08
2019-05-19T14:18:00.191Z,98184.78
2019-05-19T14:20:30.688Z,98182.22
2019-05-19T14:23:00.953Z,98183.64
2019-05-19T14:25:31.273Z,98178.77
2019-05-19T14:28:01.437Z,98173.09
2019-05-19T14:30:33.208Z,98184.03
2019-05-19T14:33:03.484Z,98192.55
2019-05-19T14:35:33.882Z,98192.91
2019-05-19T14:38:04.173Z,98187.11
2019-05-19T14:40:34.373Z,98181.80
2019-05-19T14:43:04.904Z,98184.82
2019-05-19T14:45:36.940Z,98189.67
2019-05-19T14:48:07.193Z,98189.75
2019-05-19T14:50:37.509Z,98189.94
2019-05-19T14:53:07.601Z,98192.58
2019-05-19T14:55:37.924Z,98187.05
2019-05-19T14:58:08.326Z,98187.06
2019-05-19T15:00:38.620Z,98191.18
2019-05-19T15:03:09.090Z,98195.47
2019-05-19T15:05:39.415Z,98189.04
2019-05-19T15:08:09.585Z,98194.64
2019-05-19T15:10:39.682Z,98189.24
2019-05-19T15:13:10.019Z,98191.69
2019-05-19T15:15:40.223Z,98194.13
2019-05-19T15:18:10.473Z,98190.12
2019-05-19T15:20:40.829Z,98192.03
2019-05-19T15:23:11.107Z,98188.59
2019-05-19T15:25:41.268Z,98187.97
2019-05-19T15:28:11.684Z,98194.92
2019-05-19T15:30:41.720Z,98184.59
2019-05-19T15:33:11.887Z,98191.54
2019-05-19T15:35:41.984Z,98194.75
2019-05-19T15:38:12.153Z,98188.33
2019-05-19T15:40:42.354Z,98187.47
2019-05-19T15:43:12.430Z,98189.69
2019-05-19T15:45:42.532Z,98185.12
2019-05-19T15:48:12.782Z,98188.66
2019-05-19T15:50:42.962Z,98192.22
2019-05-19T15:53:14.119Z,98187.79
2019-05-19T15:55:44.269Z,98190.00
2019-05-19T15:58:16.760Z,98187.11
2019-05-19T16:00:46.602Z,98185.73
2019-05-19T16:03:16.852Z,98179.58
2019-05-19T16:05:47.015Z,98177.90
2019-05-19T16:08:17.112Z,98177.84
2019-05-19T16:10:47.420Z,98178.83
2019-05-19T16:13:21.829Z,98178.73
2019-05-19T16:15:49.985Z,98174.36
2019-05-19T16:18:20.069Z,98176.92
2019-05-19T16:20:49.994Z,98168.12
2019-05-19T16:23:20.050Z,98166.41
2019-05-19T16:25:50.079Z,98160.81
2019-05-19T16:28:30.215Z,98164.06
2019-05-19T16:30:51.883Z,98158.48
2019-05-19T16:33:24.913Z,98158.97
2019-05-19T16:35:55.439Z,98159.82
2019-05-19T16:38:25.661Z,98163.27
2019-05-19T16:40:55.920Z,98166.12
2019-05-19T16:43:26.061Z,98166.66
2019-05-19T16:45:56.579Z,98170.34
2019-05-19T16:48:26.820Z,98173.08
2019-05-19T16:50:57.075Z,98171.53
2019-05-19T16:53:27.555Z,98168.50
2019-05-19T16:55:57.760Z,98173.22
2019-05-19T16:58:27.788Z,98174.63
2019-05-19T17:00:58.991Z,98183.26
2019-05-19T17:03:29.270Z,98184.07
2019-05-19T17:05:59.513Z,98177.96
2019-05-19T17:08:29.599Z,98179.65
2019-05-19T17:11:00.080Z,98175.78
2019-05-19T17:13:30.068Z,98177.63
2019-05-19T17:16:00.320Z,98180.16
2019-05-19T17:18:30.582Z,98177.78
2019-05-19T17:21:01.713Z,98184.69
2019-05-19T17:23:32.007Z,98187.75
2019-05-19T17:26:02.085Z,98182.70
2019-05-19T17:28:32.473Z,98188.97
2019-05-19T17:31:02.679Z,98182.37
2019-05-19T17:33:33.159Z,98187.46
2019-05-19T17:36:03.395Z,98188.80
2019-05-19T17:38:33.782Z,98179.98
2019-05-19T17:41:04.304Z,98189.89
2019-05-19T17:43:34.479Z,98190.38
2019-05-19T17:46:04.985Z,98188.15
2019-05-19T17:48:35.321Z,98193.64
2019-05-19T17:51:06.244Z,98190.75
2019-05-19T17:53:36.531Z,98195.58
2019-05-19T17:56:06.992Z,98196.97
2019-05-19T17:58:37.514Z,98207.36
2019-05-19T18:01:07.784Z,98206.41
2019-05-19T18:03:39.905Z,98206.14
2019-05-19T18:06:10.375Z,98212.74
2019-05-19T18:08:40.505Z,98210.25
2019-05-19T18:11:10.885Z,98214.67
2019-05-19T18:13:41.237Z,98215.60
2019-05-19T18:16:11.557Z,98220.26
2019-05-19T18:18:41.697Z,98221.23
2019-05-19T18:21:11.876Z,98218.31
2019-05-19T18:23:42.238Z,98223.13
2019-05-19T18:26:13.069Z,98222.91
2019-05-19T18:28:43.625Z,98222.38
2019-05-19T18:31:14.421Z,98228.41
2019-05-19T18:33:44.691Z,98231.27
2019-05-19T18:36:15.079Z,98227.72
2019-05-19T18:38:45.579Z,98226.00
2019-05-19T18:41:15.768Z,98237.33
2019-05-19T18:43:45.905Z,98230.69
2019-05-19T18:46:16.353Z,98239.44
2019-05-19T18:48:46.542Z,98240.55
2019-05-19T18:51:16.802Z,98239.36
2019-05-19T18:53:47.140Z,98242.62
2019-05-19T18:56:17.435Z,98244.34
2019-05-19T18:58:47.874Z,98245.25
2019-05-19T19:01:18.492Z,98243.66
2019-05-19T19:03:49.544Z,98241.18
2019-05-19T19:06:20.498Z,98243.48
2019-05-19T19:08:51.076Z,98241.27
2019-05-19T19:11:21.777Z,98237.82
2019-05-19T19:13:52.482Z,98247.06
2019-05-19T19:16:22.653Z,98247.00
2019-05-19T19:18:53.011Z,98251.84
2019-05-19T19:21:23.636Z,98252.20
2019-05-19T19:23:54.218Z,98258.80
2019-05-19T19:26:24.630Z,98263.56
2019-05-19T19:28:54.995Z,98265.84
2019-05-19T19:31:25.501Z,98266.78
2019-05-19T19:33:55.912Z,98267.69
2019-05-19T19:36:26.496Z,98271.32
2019-05-19T19:38:56.533Z,98273.34
2019-05-19T19:41:26.385Z,98278.51
2019-05-19T19:43:56.483Z,98273.20
2019-05-19T19:46:27.005Z,98274.95
2019-05-19T19:48:56.612Z,98270.87
2019-05-19T19:51:26.334Z,98271.22
2019-05-19T19:53:56.172Z,98280.78
2019-05-19T19:56:25.977Z,98285.75
2019-05-19T19:58:55.997Z,98284.66
2019-05-19T20:01:25.679Z,98284.10
2019-05-19T20:03:55.299Z,98288.77
2019-05-19T20:06:24.864Z,98286.71
2019-05-19T20:08:54.662Z,98287.64
2019-05-19T20:11:24.352Z,98286.06
2019-05-19T20:13:54.061Z,98286.14
2019-05-19T20:16:23.767Z,98286.86
2019-05-19T20:18:53.539Z,98295.56
2019-05-19T20:21:23.380Z,98300.64
2019-05-19T20:23:52.991Z,98291.23
2019-05-19T20:26:22.764Z,98292.88
2019-05-19T20:28:52.436Z,98299.83
2019-05-19T20:31:22.118Z,98307.91
2019-05-19T20:33:52.086Z,98305.55
2019-05-19T20:36:21.859Z,98298.42
2019-05-19T20:38:51.788Z,98306.41
2019-05-19T20:41:21.727Z,98300.39
2019-05-19T20:43:51.416Z,98315.18
2019-05-19T20:46:21.088Z,98309.42
2019-05-19T20:48:50.770Z,98310.77
2019-05-19T20:51:20.459Z,98313.27
2019-05-19T20:53:53.149Z,98309.01
2019-05-19T20:56:21.694Z,98309.95
2019-05-19T20:58:51.528Z,98314.66
2019-05-19T21:01:21.296Z,98310.44
2019-05-19T21:03:51.201Z,98313.33
2019-05-19T21:06:20.785Z,98305.19
2019-05-19T21:08:50.427Z,98313.80
2019-05-19T21:11:20.415Z,98321.78
2019-05-19T21:13:50.074Z,98321.06
2019-05-19T21:16:19.794Z,98332.45
2019-05-19T21:18:49.586Z,98331.56
2019-05-19T21:21:19.422Z,98321.69
2019-05-19T21:23:49.133Z,98330.72
2019-05-19T21:26:19.001Z,98333.08
2019-05-19T21:28:48.638Z,98326.03
2019-05-19T21:31:18.441Z,98318.40
2019-05-19T21:33:48.039Z,98316.44
2019-05-19T21:36:17.676Z,98316.34
2019-05-19T21:38:47.432Z,98323.31
2019-05-19T21:41:17.082Z,98322.83
2019-05-19T21:43:46.756Z,98319.17
2019-05-19T21:46:16.553Z,98317.55
2019-05-19T21:48:46.245Z,98314.13
2019-05-19T21:51:15.902Z,98313.51
2019-05-19T21:53:45.696Z,98309.34
2019-05-19T21:56:15.600Z,98319.59
2019-05-19T21:58:45.244Z,98315.43
2019-05-19T22:01:23.154Z,98318.63
2019-05-19T22:03:46.711Z,98318.54
2019-05-19T22:06:19.567Z,98317.41
2019-05-19T22:08:49.291Z,98313.52
2019-05-19T22:11:19.039Z,98313.91
2019-05-19T22:13:49.368Z,98311.65
2019-05-19T22:16:19.274Z,98317.02
2019-05-19T22:18:48.992Z,98315.81
2019-05-19T22:21:18.666Z,98317.89
2019-05-19T22:23:48.547Z,98317.59
2019-05-19T22:26:18.205Z,98315.66
2019-05-19T22:28:48.053Z,98322.86
2019-05-19T22:31:17.826Z,98316.48
2019-05-19T22:33:47.616Z,98312.46
2019-05-19T22:36:17.476Z,98310.45
2019-05-19T22:38:47.216Z,98304.94
2019-05-19T22:41:17.188Z,98308.29
2019-05-19T22:43:47.104Z,98311.31
2019-05-19T22:46:16.856Z,98311.07
2019-05-19T22:48:46.810Z,98303.27
2019-05-19T22:51:16.522Z,98303.31
2019-05-19T22:53:46.342Z,98302.39
2019-05-19T22:56:16.113Z,98299.61
2019-05-19T22:58:45.723Z,98296.24
2019-05-19T23:01:15.425Z,98294.33
2019-05-19T23:03:45.292Z,98294.45
2019-05-19T23:06:14.997Z,98297.48
2019-05-19T23:08:44.746Z,98290.94
2019-05-19T23:11:14.538Z,98289.05
2019-05-19T23:13:44.316Z,98287.67
2019-05-19T23:16:14.060Z,98287.30
2019-05-19T23:18:43.828Z,98293.11
2019-05-19T23:21:13.740Z,98287.98
2019-05-19T23:23:43.631Z,98287.98
2019-05-19T23:26:13.727Z,98289.23
2019-05-19T23:28:43.548Z,98292.70
2019-05-19T23:31:13.524Z,98289.42
2019-05-19T23:33:43.339Z,98289.34
2019-05-19T23:36:12.954Z,98291.46
2019-05-19T23:38:42.751Z,98287.11
2019-05-19T23:41:12.696Z,98288.84
2019-05-19T23:43:42.291Z,98283.73
2019-05-19T23:46:12.151Z,98288.25
2019-05-19T23:48:41.818Z,98286.58
2019-05-19T23:51:11.564Z,98285.48
2019-05-19T23:53:41.231Z,98292.70
2019-05-19T23:56:11.189Z,98297.55
2019-05-19T23:58:41.111Z,98300.10
